Time;durP1;ratioP1;P1;durP2;ratioP2;P2;SDS_P1;SDS_P2;PMS_P1;PMS_P2;Temp;Humidity;BMP_temperature;BMP_pressure;BME280_temperature;BME280_humidity;BME280_pressure;Samples;Min_cycle;Max_cycle;Signal;HPM_P1;HPM_P2
2022/08/02 00:01:38;;;;;;;5.38;3.67;;;15.90;99.90;;;;;;5029554;28;20114;-62
2022/08/02 00:04:04;;;;;;;9.20;4.22;;;15.90;99.90;;;;;;5030252;28;20036;-61
2022/08/02 00:06:30;;;;;;;6.13;3.97;;;15.90;99.90;;;;;;5026958;28;20098;-60
2022/08/02 00:08:56;;;;;;;7.18;3.78;;;15.90;99.90;;;;;;5031520;28;20108;-61
2022/08/02 00:11:22;;;;;;;9.75;4.20;;;15.90;99.90;;;;;;5031874;28;20052;-61
2022/08/02 00:13:47;;;;;;;5.63;3.95;;;15.90;99.90;;;;;;5031933;28;20037;-59
2022/08/02 00:16:13;;;;;;;6.85;3.58;;;15.90;99.90;;;;;;5028841;28;20036;-60
2022/08/02 00:18:39;;;;;;;6.40;3.80;;;15.80;99.90;;;;;;5032041;28;20029;-62
2022/08/02 00:21:04;;;;;;;11.43;4.13;;;15.80;99.90;;;;;;5031088;28;20144;-61
2022/08/02 00:23:30;;;;;;;8.18;4.15;;;15.70;99.90;;;;;;5030041;28;20025;-60
2022/08/02 00:25:56;;;;;;;6.60;3.65;;;15.70;99.90;;;;;;5029422;28;20029;-59
2022/08/02 00:28:23;;;;;;;8.60;4.22;;;15.70;99.90;;;;;;5027141;28;20018;-58
2022/08/02 00:30:48;;;;;;;7.25;4.72;;;15.70;99.90;;;;;;5028239;28;20029;-60
2022/08/02 00:33:14;;;;;;;5.10;3.22;;;15.60;99.90;;;;;;5029985;28;20060;-61
2022/08/02 00:35:39;;;;;;;9.57;3.92;;;15.70;99.90;;;;;;5026453;28;20029;-61
2022/08/02 00:38:05;;;;;;;5.47;3.80;;;15.70;99.90;;;;;;5030463;28;20041;-59
2022/08/02 00:40:30;;;;;;;10.00;5.05;;;15.70;99.90;;;;;;5028828;28;20112;-61
2022/08/02 00:43:14;;;;;;;6.55;4.28;;;15.80;99.90;;;;;;5030740;28;20399;-61
2022/08/02 00:45:41;;;;;;;8.27;3.88;;;15.80;99.90;;;;;;5026334;28;20499;-60
2022/08/02 00:48:07;;;;;;;5.68;4.07;;;15.80;99.90;;;;;;5029128;28;20034;-61
2022/08/02 00:50:34;;;;;;;8.23;4.57;;;15.90;99.90;;;;;;5027540;28;20021;-61
2022/08/02 00:53:00;;;;;;;6.80;3.83;;;15.90;99.90;;;;;;5028102;28;20049;-60
2022/08/02 00:55:26;;;;;;;6.38;4.07;;;15.80;99.90;;;;;;5029522;28;20037;-59
2022/08/02 00:57:52;;;;;;;9.77;4.53;;;15.70;99.90;;;;;;5028318;28;20080;-58
2022/08/02 01:00:18;;;;;;;11.27;5.07;;;15.70;99.90;;;;;;5026095;28;20092;-60
2022/08/02 01:02:44;;;;;;;7.07;4.28;;;15.70;99.90;;;;;;5027947;28;20082;-59
2022/08/02 01:05:10;;;;;;;7.97;5.10;;;15.70;99.90;;;;;;5026084;28;20574;-61
2022/08/02 01:07:35;;;;;;;7.93;4.45;;;15.70;99.90;;;;;;5023159;28;20370;-67
2022/08/02 01:10:01;;;;;;;9.85;4.80;;;15.70;99.90;;;;;;5031322;28;20125;-60
2022/08/02 01:12:27;;;;;;;9.65;5.05;;;15.70;99.90;;;;;;5029672;28;20108;-59
2022/08/02 01:14:57;;;;;;;12.70;5.25;;;15.70;99.90;;;;;;5031853;28;20208;-59
2022/08/02 01:18:00;;;;;;;10.75;4.75;;;15.60;99.90;;;;;;5025802;28;20022;-60
2022/08/02 01:20:53;;;;;;;8.30;4.70;;;15.60;99.90;;;;;;5030211;28;20116;-60
2022/08/02 01:23:25;;;;;;;9.50;4.40;;;15.70;99.90;;;;;;5026392;28;20516;-59
2022/08/02 01:26:18;;;;;;;10.13;5.32;;;15.70;99.90;;;;;;5029767;28;20034;-61
2022/08/02 01:28:55;;;;;;;13.23;5.30;;;15.70;99.90;;;;;;5026938;28;20052;-60
2022/08/02 01:31:39;;;;;;;13.02;5.82;;;15.60;99.90;;;;;;5030059;28;20115;-60
2022/08/02 01:34:15;;;;;;;11.02;5.10;;;15.60;99.90;;;;;;5025853;28;20026;-59
2022/08/02 01:36:45;;;;;;;11.30;5.43;;;15.50;99.90;;;;;;5021378;28;20467;-60
2022/08/02 01:39:14;;;;;;;13.38;5.30;;;15.60;99.90;;;;;;5028884;28;20075;-60
2022/08/02 01:41:41;;;;;;;10.52;5.90;;;15.60;99.90;;;;;;5028561;28;20109;-59
2022/08/02 01:44:09;;;;;;;11.00;6.10;;;15.50;99.90;;;;;;5028715;28;20029;-56
2022/08/02 01:46:39;;;;;;;12.20;5.55;;;15.50;99.90;;;;;;5024800;28;20022;-60
2022/08/02 01:49:08;;;;;;;13.63;5.50;;;15.50;99.90;;;;;;5023830;28;20032;-60
2022/08/02 01:54:23;;;;;;;10.98;5.47;;;15.40;99.90;;;;;;5052681;22;20103;-59
2022/08/02 01:56:50;;;;;;;14.85;6.25;;;15.40;99.90;;;;;;5043890;28;20438;-61
2022/08/02 01:59:19;;;;;;;14.70;6.85;;;15.40;99.90;;;;;;5041402;28;20020;-61
2022/08/02 02:01:48;;;;;;;10.35;6.38;;;15.40;99.90;;;;;;5047934;28;20032;-62
2022/08/02 02:04:14;;;;;;;12.55;6.05;;;15.40;99.90;;;;;;5044669;28;20025;-62
2022/08/02 02:06:43;;;;;;;14.43;6.47;;;15.40;99.90;;;;;;5028956;28;20087;-61
2022/08/02 02:09:11;;;;;;;15.70;5.57;;;15.40;99.90;;;;;;5033862;28;20063;-59
2022/08/02 02:11:37;;;;;;;15.10;5.60;;;15.40;99.90;;;;;;5026071;28;20057;-60
2022/08/02 02:14:06;;;;;;;9.85;5.70;;;15.30;99.90;;;;;;5029363;28;20114;-67
2022/08/02 02:16:33;;;;;;;11.38;6.32;;;15.30;99.90;;;;;;5029232;28;20105;-60
2022/08/02 02:19:01;;;;;;;9.95;5.30;;;15.30;99.90;;;;;;5037470;28;20072;-60
2022/08/02 02:21:27;;;;;;;11.63;6.35;;;15.20;99.90;;;;;;5028898;28;20063;-61
2022/08/02 02:23:52;;;;;;;9.07;6.40;;;15.20;99.90;;;;;;5031916;28;20455;-60
2022/08/02 02:26:19;;;;;;;14.43;6.45;;;15.20;99.90;;;;;;5030454;28;20041;-61
2022/08/02 02:28:46;;;;;;;11.88;6.20;;;15.10;99.90;;;;;;5031497;28;20377;-59
2022/08/02 02:31:16;;;;;;;12.02;5.88;;;15.10;99.90;;;;;;5026127;28;20034;-60
2022/08/02 02:34:14;;;;;;;10.70;5.25;;;15.10;99.90;;;;;;5024437;28;20048;-60
2022/08/02 02:36:44;;;;;;;11.80;6.25;;;15.10;99.90;;;;;;5022660;28;20025;-59
2022/08/02 02:39:13;;;;;;;8.45;5.60;;;15.10;99.90;;;;;;5028079;28;20026;-61
2022/08/02 02:41:39;;;;;;;10.50;5.63;;;15.00;99.90;;;;;;5027531;28;20502;-60
2022/08/02 02:44:08;;;;;;;12.35;5.57;;;15.00;99.90;;;;;;5031885;28;20033;-60
2022/08/02 02:46:34;;;;;;;10.70;6.43;;;15.00;99.90;;;;;;5028565;28;20476;-60
2022/08/02 02:49:00;;;;;;;12.45;6.22;;;14.90;99.90;;;;;;5034044;28;20037;-61
2022/08/02 02:51:26;;;;;;;11.07;6.43;;;14.90;99.90;;;;;;5024601;28;20860;-61
2022/08/02 02:53:52;;;;;;;8.00;5.65;;;14.90;99.90;;;;;;5027769;28;20033;-61
2022/08/02 02:56:19;;;;;;;14.18;6.45;;;14.90;99.90;;;;;;5036012;28;20547;-60
2022/08/02 02:58:45;;;;;;;14.48;7.28;;;14.90;99.90;;;;;;5030508;28;20029;-61
2022/08/02 03:01:27;;;;;;;14.20;7.20;;;14.80;99.90;;;;;;5027314;28;21663;-61
2022/08/02 03:03:54;;;;;;;12.73;7.30;;;14.90;99.90;;;;;;5029973;28;20032;-60
2022/08/02 03:06:19;;;;;;;15.02;7.32;;;14.80;99.90;;;;;;5025897;28;20053;-62
2022/08/02 03:08:45;;;;;;;16.90;7.68;;;14.80;99.90;;;;;;5028558;28;20431;-60
2022/08/02 03:11:11;;;;;;;15.00;7.30;;;14.80;99.90;;;;;;5031836;28;20112;-60
2022/08/02 03:13:38;;;;;;;15.93;7.30;;;14.80;99.90;;;;;;5028034;28;20021;-59
2022/08/02 03:16:04;;;;;;;10.30;6.55;;;14.80;99.90;;;;;;5029218;28;20034;-60
2022/08/02 03:18:35;;;;;;;15.30;6.68;;;14.80;99.90;;;;;;5031212;28;20025;-61
2022/08/02 03:21:06;;;;;;;11.70;6.80;;;14.70;99.90;;;;;;5034747;28;20039;-60
2022/08/02 03:23:32;;;;;;;12.27;6.88;;;14.60;99.90;;;;;;5029999;28;20013;-58
2022/08/02 03:25:58;;;;;;;13.75;7.13;;;14.60;99.90;;;;;;5030712;28;20060;-60
2022/08/02 03:28:24;;;;;;;11.57;7.22;;;14.60;99.90;;;;;;5034639;28;20070;-60
2022/08/02 03:30:50;;;;;;;21.45;7.78;;;14.50;99.90;;;;;;5039321;28;20028;-61
2022/08/02 03:33:17;;;;;;;12.82;8.15;;;14.50;99.90;;;;;;5033268;28;20029;-59
2022/08/02 03:35:46;;;;;;;11.15;7.78;;;14.50;99.90;;;;;;5032751;28;20609;-61
2022/08/02 03:38:12;;;;;;;12.80;7.72;;;14.50;99.90;;;;;;5030877;28;20033;-61
2022/08/02 03:40:40;;;;;;;13.93;6.93;;;14.40;99.90;;;;;;5031772;28;20029;-61
2022/08/02 03:43:07;;;;;;;12.52;7.60;;;14.40;99.90;;;;;;5030894;28;20014;-60
2022/08/02 03:45:33;;;;;;;11.60;7.88;;;14.40;99.90;;;;;;5035358;28;20025;-61
2022/08/02 03:47:59;;;;;;;14.18;8.05;;;14.40;99.90;;;;;;5034146;28;20026;-60
2022/08/02 03:50:26;;;;;;;14.18;8.38;;;14.40;99.90;;;;;;5036988;28;20013;-61
2022/08/02 03:52:52;;;;;;;11.13;7.40;;;14.40;99.90;;;;;;5029429;28;20487;-61
2022/08/02 03:55:18;;;;;;;17.15;7.88;;;14.40;99.90;;;;;;5029330;28;20060;-60
2022/08/02 03:57:43;;;;;;;11.50;7.40;;;14.40;99.90;;;;;;5030558;28;20559;-60
2022/08/02 04:00:12;;;;;;;11.65;7.82;;;14.40;99.90;;;;;;5034801;28;20399;-60
2022/08/02 04:02:38;;;;;;;18.85;8.23;;;14.40;99.90;;;;;;5024073;28;20018;-60
2022/08/02 04:05:04;;;;;;;11.85;8.07;;;14.40;99.90;;;;;;5035360;28;20033;-60
2022/08/02 04:07:30;;;;;;;13.10;7.10;;;14.40;99.90;;;;;;5031246;28;20075;-60
2022/08/02 04:09:55;;;;;;;19.75;7.93;;;14.40;99.90;;;;;;5032516;28;20462;-59
2022/08/02 04:12:21;;;;;;;16.65;8.63;;;14.40;99.90;;;;;;5030207;28;20033;-60
2022/08/02 04:14:46;;;;;;;14.77;7.72;;;14.40;99.90;;;;;;5037011;28;20067;-60
2022/08/02 04:17:13;;;;;;;12.52;7.20;;;14.40;99.90;;;;;;5034992;28;20488;-62
2022/08/02 04:19:52;;;;;;;15.00;7.75;;;14.50;99.90;;;;;;5033724;28;20480;-60
2022/08/02 04:22:27;;;;;;;11.20;7.68;;;14.50;99.90;;;;;;5028758;28;20041;-61
2022/08/02 04:24:57;;;;;;;15.57;7.82;;;14.50;99.90;;;;;;5027358;28;20026;-61
2022/08/02 04:27:23;;;;;;;14.95;7.65;;;14.50;99.90;;;;;;5039395;28;20029;-60
2022/08/02 04:29:49;;;;;;;14.27;8.48;;;14.50;99.90;;;;;;5033187;28;20033;-60
2022/08/02 04:32:16;;;;;;;15.02;7.88;;;14.50;99.90;;;;;;5028124;28;20052;-60
2022/08/02 04:34:44;;;;;;;11.05;7.82;;;14.40;99.90;;;;;;5023867;28;20080;-60
2022/08/02 04:37:13;;;;;;;9.68;7.68;;;14.50;99.90;;;;;;5027376;28;20040;-60
2022/08/02 04:39:42;;;;;;;10.95;7.50;;;14.40;99.90;;;;;;5030026;28;20036;-61
2022/08/02 04:42:08;;;;;;;10.88;7.13;;;14.40;99.90;;;;;;5031778;28;20446;-60
2022/08/02 04:44:34;;;;;;;11.38;7.32;;;14.40;99.90;;;;;;5029637;28;20033;-60
2022/08/02 04:47:01;;;;;;;12.25;7.72;;;14.40;99.90;;;;;;5030318;28;20033;-60
2022/08/02 04:49:28;;;;;;;12.88;7.97;;;14.40;99.90;;;;;;5029190;28;20025;-59
2022/08/02 04:51:54;;;;;;;21.27;8.98;;;14.50;99.90;;;;;;5028802;28;20037;-60
2022/08/02 04:54:20;;;;;;;21.20;8.80;;;14.50;99.90;;;;;;5026602;28;20044;-60
2022/08/02 04:56:45;;;;;;;18.70;9.50;;;14.50;99.90;;;;;;5028565;28;20406;-59
2022/08/02 04:59:11;;;;;;;15.27;9.55;;;14.50;99.90;;;;;;5031334;28;20055;-60
2022/08/02 05:01:38;;;;;;;18.25;9.75;;;14.60;99.90;;;;;;5028716;28;20495;-56
2022/08/02 05:04:04;;;;;;;12.98;8.95;;;14.60;99.90;;;;;;5031860;28;20025;-62
2022/08/02 05:06:30;;;;;;;19.60;9.27;;;14.70;99.90;;;;;;5033407;28;20032;-61
2022/08/02 05:08:55;;;;;;;12.73;8.77;;;14.70;99.90;;;;;;5029808;28;20025;-61
2022/08/02 05:11:23;;;;;;;14.18;9.73;;;14.80;99.90;;;;;;5033138;28;20082;-60
2022/08/02 05:13:48;;;;;;;19.77;11.27;;;14.90;99.90;;;;;;5038594;28;20049;-60
2022/08/02 05:16:14;;;;;;;19.48;10.73;;;14.90;99.90;;;;;;5027617;28;20028;-61
2022/08/02 05:18:39;;;;;;;14.73;9.43;;;15.00;99.90;;;;;;5030834;28;20025;-62
2022/08/02 05:21:05;;;;;;;16.90;11.82;;;15.10;99.90;;;;;;5029181;28;20057;-60
2022/08/02 05:23:30;;;;;;;16.27;10.18;;;15.20;99.90;;;;;;5028366;28;20025;-60
2022/08/02 05:25:56;;;;;;;13.77;9.82;;;15.20;99.90;;;;;;5027680;28;20037;-60
2022/08/02 05:28:22;;;;;;;20.35;10.27;;;15.30;99.90;;;;;;5029931;28;20021;-61
2022/08/02 05:30:48;;;;;;;13.70;10.52;;;15.40;99.90;;;;;;5028065;28;20249;-61
2022/08/02 05:33:14;;;;;;;17.80;10.18;;;15.50;99.90;;;;;;5037089;28;20036;-61
2022/08/02 05:35:39;;;;;;;13.23;10.30;;;15.60;99.90;;;;;;5031338;28;20030;-61
2022/08/02 05:38:05;;;;;;;16.90;10.75;;;15.70;99.90;;;;;;5028041;28;20479;-60
2022/08/02 05:40:30;;;;;;;13.75;9.68;;;15.80;99.90;;;;;;5031051;28;20040;-61
2022/08/02 05:42:56;;;;;;;14.70;11.18;;;15.90;99.90;;;;;;5033913;28;20040;-62
2022/08/02 05:45:22;;;;;;;16.38;11.40;;;16.00;99.90;;;;;;5029836;28;20480;-61
2022/08/02 05:47:47;;;;;;;21.20;12.15;;;16.10;99.90;;;;;;5027665;28;20129;-61
2022/08/02 05:50:13;;;;;;;19.42;12.43;;;16.10;99.90;;;;;;5031808;28;20029;-61
2022/08/02 05:52:47;;;;;;;17.00;13.25;;;16.20;99.90;;;;;;5030986;28;20069;-61
2022/08/02 05:55:21;;;;;;;22.25;15.18;;;16.30;99.90;;;;;;5030649;28;20033;-61
2022/08/02 05:58:05;;;;;;;22.85;13.77;;;16.40;99.90;;;;;;5025618;28;20029;-61
2022/08/02 06:00:32;;;;;;;17.30;12.13;;;16.50;99.90;;;;;;5031943;28;20496;-61
2022/08/02 06:03:04;;;;;;;13.65;10.50;;;16.60;99.90;;;;;;5031014;28;20033;-61
2022/08/02 06:05:40;;;;;;;15.10;12.60;;;16.70;99.90;;;;;;5036655;28;20028;-61
2022/08/02 06:08:09;;;;;;;14.95;12.55;;;16.70;99.90;;;;;;5026554;28;20036;-61
2022/08/02 06:10:37;;;;;;;17.33;11.45;;;16.80;99.90;;;;;;5040081;28;20057;-62
2022/08/02 06:13:10;;;;;;;15.02;11.15;;;16.80;99.90;;;;;;5027356;28;20372;-61
2022/08/02 06:15:37;;;;;;;17.83;11.40;;;16.90;99.90;;;;;;5029317;28;20033;-61
2022/08/02 06:18:04;;;;;;;17.70;11.52;;;16.90;99.90;;;;;;5028901;28;20033;-61
2022/08/02 06:20:34;;;;;;;15.93;11.35;;;17.00;99.90;;;;;;5038220;28;20103;-62
2022/08/02 06:23:04;;;;;;;19.63;12.35;;;17.00;99.90;;;;;;5025786;28;20035;-62
2022/08/02 06:25:31;;;;;;;17.50;11.15;;;17.00;99.90;;;;;;5028164;28;20052;-61
2022/08/02 06:27:59;;;;;;;21.33;12.70;;;17.10;99.90;;;;;;5027407;28;20033;-62
2022/08/02 06:30:25;;;;;;;15.35;11.93;;;17.20;99.90;;;;;;5027963;28;20104;-61
2022/08/02 06:32:51;;;;;;;17.70;11.75;;;17.30;99.90;;;;;;5029555;28;20037;-61
2022/08/02 06:35:16;;;;;;;12.35;9.13;;;17.40;99.90;;;;;;5032207;28;20077;-63
2022/08/02 06:37:52;;;;;;;15.52;11.57;;;17.50;99.90;;;;;;5027624;28;20100;-61
2022/08/02 06:40:44;;;;;;;16.02;9.93;;;17.60;99.90;;;;;;5030459;28;20028;-60
2022/08/02 06:43:28;;;;;;;15.23;10.35;;;17.70;99.90;;;;;;5030441;28;20032;-60
2022/08/02 06:45:53;;;;;;;13.23;9.68;;;17.80;99.90;;;;;;5032267;28;20026;-61
2022/08/02 06:48:19;;;;;;;13.90;9.38;;;17.90;99.90;;;;;;5027563;28;20116;-62
2022/08/02 06:50:44;;;;;;;18.33;9.55;;;18.00;99.90;;;;;;5026800;28;20506;-62
2022/08/02 06:53:10;;;;;;;16.52;8.73;;;18.00;99.90;;;;;;5026210;28;20116;-62
2022/08/02 06:55:36;;;;;;;11.13;8.48;;;18.20;99.90;;;;;;5032174;28;20044;-61
2022/08/02 06:58:02;;;;;;;14.35;7.80;;;18.20;99.90;;;;;;5029673;28;20438;-61
2022/08/02 07:00:29;;;;;;;13.65;8.27;;;18.30;99.90;;;;;;5031165;28;20037;-61
2022/08/02 07:02:55;;;;;;;12.45;8.00;;;18.40;99.90;;;;;;5035851;28;20034;-61
2022/08/02 07:05:20;;;;;;;12.25;7.53;;;18.60;99.90;;;;;;5033934;28;20029;-60
2022/08/02 07:07:46;;;;;;;13.38;7.32;;;18.70;99.90;;;;;;5031910;28;20024;-61
2022/08/02 07:10:12;;;;;;;10.35;7.63;;;18.80;99.90;;;;;;5028994;28;20033;-61
2022/08/02 07:12:38;;;;;;;11.07;7.15;;;18.90;99.90;;;;;;5036093;28;20049;-62
2022/08/02 07:15:06;;;;;;;11.50;7.05;;;19.00;99.90;;;;;;5033107;28;20118;-61
2022/08/02 07:17:32;;;;;;;15.55;7.63;;;19.10;99.90;;;;;;5036727;28;20024;-60
2022/08/02 07:19:58;;;;;;;15.05;7.03;;;19.20;99.90;;;;;;5035228;28;20026;-61
2022/08/02 07:22:25;;;;;;;6.32;5.70;;;19.30;99.90;;;;;;5031489;28;20025;-60
2022/08/02 07:24:52;;;;;;;8.82;6.40;;;19.40;99.90;;;;;;5028295;28;20022;-61
2022/08/02 07:27:18;;;;;;;7.72;5.65;;;19.50;99.90;;;;;;5030477;28;20033;-61
2022/08/02 07:29:44;;;;;;;9.48;6.38;;;19.60;99.90;;;;;;5035304;28;20025;-59
2022/08/02 07:32:10;;;;;;;10.48;6.22;;;19.70;99.90;;;;;;5035248;28;20099;-61
2022/08/02 07:34:35;;;;;;;8.70;5.80;;;19.80;99.90;;;;;;5030481;28;20056;-62
2022/08/02 07:37:01;;;;;;;11.05;5.18;;;19.90;99.90;;;;;;5033459;28;20026;-61
2022/08/02 07:39:27;;;;;;;10.57;5.28;;;19.90;99.90;;;;;;5030722;28;20105;-59
2022/08/02 07:41:52;;;;;;;6.95;4.65;;;20.10;99.90;;;;;;5037161;28;20585;-55
2022/08/02 07:44:18;;;;;;;8.80;5.25;;;20.20;99.90;;;;;;5025937;28;20040;-58
2022/08/02 07:46:45;;;;;;;9.30;4.97;;;20.30;99.90;;;;;;5029117;28;20047;-58
2022/08/02 07:49:12;;;;;;;11.23;4.43;;;20.30;99.90;;;;;;5033754;28;20387;-59
2022/08/02 07:51:38;;;;;;;9.80;4.30;;;20.60;99.90;;;;;;5036323;28;20083;-59
2022/08/02 07:54:04;;;;;;;7.32;4.95;;;20.80;99.90;;;;;;5027615;28;20064;-57
2022/08/02 07:56:29;;;;;;;6.75;4.35;;;20.90;99.90;;;;;;5049023;22;20081;-60
2022/08/02 07:58:55;;;;;;;9.60;4.75;;;21.00;99.90;;;;;;5028194;28;20191;-59
2022/08/02 08:01:20;;;;;;;6.78;5.28;;;21.10;99.90;;;;;;5024147;28;20033;-59
2022/08/02 08:03:46;;;;;;;7.35;5.57;;;21.10;99.90;;;;;;5014088;28;20017;-60
2022/08/02 08:06:11;;;;;;;9.05;4.82;;;21.20;99.90;;;;;;5025010;28;20076;-61
2022/08/02 08:08:37;;;;;;;5.88;4.55;;;21.20;99.90;;;;;;5010651;28;20030;-59
2022/08/02 08:11:03;;;;;;;7.25;4.03;;;21.30;99.90;;;;;;5006909;28;20026;-58
2022/08/02 08:13:28;;;;;;;5.40;4.40;;;21.40;99.90;;;;;;5004584;28;20587;-60
2022/08/02 08:15:54;;;;;;;7.60;3.95;;;21.50;99.90;;;;;;5005901;28;20091;-59
2022/08/02 08:18:20;;;;;;;7.15;4.05;;;21.60;99.90;;;;;;5006285;28;20030;-58
2022/08/02 08:20:46;;;;;;;4.40;3.95;;;21.70;99.90;;;;;;5008557;28;20522;-59
2022/08/02 08:23:11;;;;;;;12.35;4.18;;;21.90;99.90;;;;;;5007825;28;20042;-60
2022/08/02 08:25:37;;;;;;;11.80;4.00;;;22.00;99.90;;;;;;5007288;28;20041;-59
2022/08/02 08:28:03;;;;;;;7.25;3.72;;;22.10;99.90;;;;;;5006410;28;20439;-58
2022/08/02 08:30:28;;;;;;;7.18;4.25;;;22.20;99.90;;;;;;5005993;28;20135;-59
2022/08/02 08:32:54;;;;;;;10.77;3.70;;;22.40;99.90;;;;;;5009546;28;20028;-60
2022/08/02 08:35:19;;;;;;;12.25;3.70;;;22.50;99.90;;;;;;5011863;28;20030;-59
2022/08/02 08:37:45;;;;;;;9.25;3.75;;;22.60;99.90;;;;;;5008429;28;20040;-60
2022/08/02 08:40:11;;;;;;;7.82;3.47;;;22.80;99.90;;;;;;5007783;28;20037;-60
2022/08/02 08:42:38;;;;;;;11.25;4.32;;;22.90;99.90;;;;;;5010331;28;20569;-59
2022/08/02 08:45:05;;;;;;;10.48;3.80;;;23.00;99.90;;;;;;5007258;28;20021;-61
2022/08/02 08:47:36;;;;;;;7.60;3.55;;;23.10;99.90;;;;;;5010092;28;20026;-59
2022/08/02 08:50:23;;;;;;;7.90;3.65;;;23.20;99.90;;;;;;5002292;28;20021;-59
2022/08/02 08:53:03;;;;;;;8.63;3.33;;;23.30;99.90;;;;;;5006068;28;20109;-59
2022/08/02 08:55:31;;;;;;;7.05;3.65;;;23.50;99.90;;;;;;5006502;28;20030;-59
2022/08/02 08:57:58;;;;;;;12.32;4.57;;;23.60;99.90;;;;;;5008293;28;20026;-58
2022/08/02 09:00:24;;;;;;;10.68;3.05;;;23.70;99.90;;;;;;5004515;28;20771;-58
2022/08/02 09:02:50;;;;;;;5.07;3.13;;;23.80;99.90;;;;;;5021537;28;20026;-58
2022/08/02 09:05:16;;;;;;;5.53;3.42;;;23.90;99.90;;;;;;5008229;28;20095;-58
2022/08/02 09:07:45;;;;;;;3.72;3.30;;;24.10;99.90;;;;;;5006575;28;20026;-58
2022/08/02 09:10:48;;;;;;;4.45;3.28;;;24.20;99.90;;;;;;5011268;28;20031;-59
2022/08/02 09:13:19;;;;;;;4.22;2.58;;;24.40;99.90;;;;;;5011125;28;20025;-59
2022/08/02 09:15:52;;;;;;;5.57;2.88;;;24.50;99.90;;;;;;5013227;28;20038;-60
2022/08/02 09:18:18;;;;;;;6.72;3.33;;;24.70;99.90;;;;;;5004074;28;20516;-59
2022/08/02 09:20:58;;;;;;;4.63;2.33;;;24.80;99.90;;;;;;5010286;28;20037;-60
2022/08/02 09:23:25;;;;;;;3.22;2.67;;;25.00;99.90;;;;;;5004420;28;20077;-60
2022/08/02 09:26:11;;;;;;;6.60;2.58;;;25.20;99.90;;;;;;5011443;28;20033;-59
2022/08/02 09:28:40;;;;;;;3.97;2.33;;;25.20;99.90;;;;;;5006616;28;20029;-57
2022/08/02 09:31:08;;;;;;;3.33;2.70;;;25.40;99.90;;;;;;5010613;28;20029;-58
2022/08/02 09:33:35;;;;;;;3.85;2.90;;;25.40;99.90;;;;;;5005011;28;20101;-60
2022/08/02 09:36:12;;;;;;;9.75;3.33;;;25.50;99.90;;;;;;5004043;28;20485;-60
2022/08/02 09:38:39;;;;;;;8.07;2.30;;;25.70;99.90;;;;;;5001277;28;20349;-58
2022/08/02 09:41:18;;;;;;;2.90;1.80;;;25.80;99.90;;;;;;5006924;28;20033;-58
2022/08/02 09:43:43;;;;;;;2.80;2.03;;;25.90;99.90;;;;;;5005412;28;20033;-61
2022/08/02 09:46:16;;;;;;;1.85;1.75;;;26.20;99.90;;;;;;5010330;28;20102;-59
2022/08/02 09:48:48;;;;;;;2.00;1.52;;;26.50;99.90;;;;;;5006664;28;20022;-58
2022/08/02 09:51:21;;;;;;;3.75;1.70;;;26.60;99.90;;;;;;5008901;28;20025;-60
2022/08/02 09:53:49;;;;;;;2.88;1.40;;;26.70;99.90;;;;;;5008057;28;20079;-60
2022/08/02 09:56:15;;;;;;;11.38;1.80;;;26.90;99.90;;;;;;5000421;28;20083;-60
2022/08/02 09:58:41;;;;;;;2.38;1.30;;;27.10;99.90;;;;;;5005197;28;20045;-61
2022/08/02 10:01:07;;;;;;;4.68;2.15;;;27.30;99.90;;;;;;5011613;28;20030;-60
2022/08/02 10:03:33;;;;;;;2.70;1.40;;;27.40;99.90;;;;;;5006662;28;20417;-58
2022/08/02 10:06:00;;;;;;;11.45;1.65;;;27.40;99.90;;;;;;5007475;28;20034;-58
2022/08/02 10:08:27;;;;;;;1.40;1.30;;;27.30;99.90;;;;;;5005509;28;20029;-59
2022/08/02 10:10:59;;;;;;;3.10;1.50;;;27.60;99.90;;;;;;5011087;28;20033;-58
2022/08/02 10:13:31;;;;;;;1.67;1.42;;;27.80;99.90;;;;;;5008599;28;20044;-58
2022/08/02 10:15:58;;;;;;;4.50;1.60;;;28.30;99.90;;;;;;5003742;28;20033;-61
2022/08/02 10:18:23;;;;;;;1.55;1.35;;;28.50;99.90;;;;;;5002003;28;20557;-61
2022/08/02 10:20:50;;;;;;;2.15;1.40;;;28.30;99.90;;;;;;5003906;28;20106;-58
2022/08/02 10:23:18;;;;;;;2.75;1.73;;;28.10;99.90;;;;;;5005385;28;20032;-58
2022/08/02 10:25:46;;;;;;;2.28;1.60;;;28.20;99.90;;;;;;5007112;28;20037;-60
2022/08/02 10:28:14;;;;;;;3.92;1.55;;;28.20;99.90;;;;;;5010858;28;20014;-59
2022/08/02 10:30:44;;;;;;;3.97;1.80;;;28.10;99.90;;;;;;5007584;28;20041;-59
2022/08/02 10:33:11;;;;;;;2.65;2.05;;;28.00;99.90;;;;;;5009390;28;20052;-61
2022/08/02 10:35:38;;;;;;;3.75;1.83;;;27.70;99.90;;;;;;5006921;28;20034;-60
2022/08/02 10:38:10;;;;;;;3.83;1.67;;;27.60;99.90;;;;;;5004501;28;20048;-61
2022/08/02 10:40:47;;;;;;;2.33;1.60;;;27.50;99.90;;;;;;5005033;28;20118;-60
2022/08/02 10:43:35;;;;;;;5.75;1.80;;;27.70;99.90;;;;;;5011874;28;20022;-60
2022/08/02 10:46:34;;;;;;;3.60;1.80;;;27.90;99.90;;;;;;5007891;28;20101;-59
2022/08/02 10:49:12;;;;;;;3.20;1.70;;;28.10;99.90;;;;;;5002073;28;20165;-60
2022/08/02 10:52:04;;;;;;;8.50;2.28;;;27.90;99.90;;;;;;5009324;28;20018;-59
2022/08/02 10:54:46;;;;;;;5.53;2.10;;;27.50;99.90;;;;;;5006919;28;20505;-58
2022/08/02 10:57:21;;;;;;;1.55;1.45;;;27.70;99.90;;;;;;5005588;28;20518;-60
2022/08/02 10:59:49;;;;;;;3.55;1.60;;;28.00;99.90;;;;;;5005612;28;20022;-59
2022/08/02 11:02:43;;;;;;;6.20;1.70;;;28.00;99.90;;;;;;5005622;28;20092;-59
2022/08/02 11:05:17;;;;;;;1.65;1.50;;;27.90;99.90;;;;;;4995334;28;20026;-60
2022/08/02 11:07:47;;;;;;;5.38;1.85;;;28.10;99.90;;;;;;5005984;28;20025;-60
2022/08/02 11:10:25;;;;;;;4.85;2.05;;;28.20;99.90;;;;;;5005770;28;20393;-60
2022/08/02 11:12:58;;;;;;;2.10;1.40;;;28.60;99.90;;;;;;5009386;28;20042;-59
2022/08/02 11:15:23;;;;;;;3.05;1.65;;;29.00;99.90;;;;;;5011812;28;20032;-61
2022/08/02 11:17:53;;;;;;;4.18;1.42;;;28.70;99.30;;;;;;5010581;28;20105;-61
2022/08/02 11:20:21;;;;;;;4.30;1.73;;;28.50;99.70;;;;;;5008548;28;20029;-60
2022/08/02 11:22:48;;;;;;;7.93;1.77;;;28.30;99.90;;;;;;5009162;28;20026;-60
2022/08/02 11:25:25;;;;;;;4.18;2.15;;;28.40;99.60;;;;;;5010811;28;20408;-60
2022/08/02 11:27:52;;;;;;;2.00;1.40;;;28.20;99.90;;;;;;5011116;28;20361;-60
2022/08/02 11:30:18;;;;;;;4.70;1.92;;;28.30;99.90;;;;;;5007522;28;20980;-60
2022/08/02 11:32:43;;;;;;;1.50;1.23;;;28.80;99.90;;;;;;5009333;28;20037;-58
2022/08/02 11:35:09;;;;;;;1.77;1.15;;;29.30;99.90;;;;;;5007576;28;20400;-60
2022/08/02 11:37:41;;;;;;;2.22;1.67;;;29.50;99.20;;;;;;5011391;28;20400;-60
2022/08/02 11:40:09;;;;;;;3.05;1.63;;;29.90;98.90;;;;;;5009218;28;20037;-59
2022/08/02 11:42:40;;;;;;;2.72;1.30;;;30.10;97.70;;;;;;5012204;28;20626;-59
2022/08/02 11:45:08;;;;;;;2.75;1.38;;;30.30;97.40;;;;;;5014442;28;20109;-60
2022/08/02 11:47:47;;;;;;;4.07;1.85;;;30.70;99.00;;;;;;5011797;28;20495;-60
2022/08/02 11:50:13;;;;;;;2.90;1.67;;;30.60;97.80;;;;;;5013906;28;20068;-60
2022/08/02 11:52:39;;;;;;;2.70;1.50;;;31.00;96.10;;;;;;5013804;28;20061;-59
2022/08/02 11:55:09;;;;;;;3.08;1.50;;;31.10;93.80;;;;;;5013903;28;20042;-60
2022/08/02 11:57:35;;;;;;;2.00;1.35;;;30.60;93.40;;;;;;5014720;28;20440;-61
2022/08/02 12:00:03;;;;;;;2.08;1.58;;;30.60;93.60;;;;;;5014782;28;20049;-60
2022/08/02 12:02:30;;;;;;;6.95;1.70;;;30.60;94.30;;;;;;5012738;28;20022;-60
2022/08/02 12:05:05;;;;;;;11.02;1.83;;;30.80;95.50;;;;;;5013649;28;20437;-59
2022/08/02 12:07:32;;;;;;;2.47;1.50;;;30.70;95.30;;;;;;5010917;28;20030;-61
2022/08/02 12:10:10;;;;;;;3.50;1.75;;;30.60;95.20;;;;;;5006840;28;20022;-60
2022/08/02 12:12:57;;;;;;;4.22;1.63;;;30.40;95.30;;;;;;5011184;28;20025;-61
2022/08/02 12:15:44;;;;;;;2.70;1.60;;;29.60;95.60;;;;;;5014386;28;20121;-60
2022/08/02 12:20:57;;;;;;;1.92;1.58;;;29.90;95.50;;;;;;5014242;28;20036;-60
2022/08/02 12:23:22;;;;;;;1.52;1.42;;;30.10;94.90;;;;;;5011338;28;20026;-60
2022/08/02 12:26:08;;;;;;;4.07;1.40;;;30.20;94.50;;;;;;5012325;28;20443;-60
2022/08/02 12:28:37;;;;;;;4.50;1.60;;;29.70;94.40;;;;;;5010202;28;20049;-59
2022/08/02 12:31:04;;;;;;;3.33;2.30;;;29.70;96.90;;;;;;5011240;28;20022;-61
2022/08/02 12:33:44;;;;;;;4.03;2.05;;;29.70;95.50;;;;;;5011561;28;20037;-60
2022/08/02 12:36:29;;;;;;;2.67;1.67;;;29.40;94.90;;;;;;5011634;28;20034;-59
2022/08/02 12:38:59;;;;;;;2.00;1.80;;;29.20;95.30;;;;;;5012752;28;20744;-59
2022/08/02 12:41:27;;;;;;;2.03;1.80;;;29.10;95.50;;;;;;5010148;28;20216;-59
2022/08/02 12:43:53;;;;;;;4.40;2.20;;;28.90;95.70;;;;;;5012269;28;20033;-60
2022/08/02 12:46:23;;;;;;;2.03;1.70;;;28.80;95.90;;;;;;5012725;28;20369;-59
2022/08/02 12:48:49;;;;;;;3.10;2.00;;;28.80;96.10;;;;;;5013356;28;20101;-60
2022/08/02 12:51:22;;;;;;;4.43;1.90;;;28.70;95.90;;;;;;5012977;28;20109;-59
2022/08/02 12:53:49;;;;;;;2.20;1.63;;;28.80;96.30;;;;;;5010924;28;20022;-60
2022/08/02 12:56:29;;;;;;;4.72;2.10;;;28.80;97.30;;;;;;5010900;28;20433;-60